Monte Alto, Texas
Current Conditions -  °F | °C
As of 2:35 AM on Thursday 23 Oct 2014 (Local Time) from KT65 Reporting Station
Overcast Overcast  
Wind Chill: 69°   Ceiling: 8000
Heat Index: 69°   Visibility: 7mi
Dew Point: 65°   Wind: 0mph
Humidity: 89%   Direction: NA
Pressure: 30.02"   Gusts: NA
Location:  26.3131°N, 97.9381°W
Report Text: KT65 230735Z AUTO 00000KT 7SM OVC080 20/19 A3002 RMK AO2 T02030185
Loading
Personal Weather Stations






























Interactive Weather Map New forecast layout! Learn more

10-Day Weather Forecast

Advertisements
Track Severe Weather on mobile